Time;durP1;ratioP1;P1;durP2;ratioP2;P2;SDS_P1;SDS_P2;PMS_P1;PMS_P2;Temp;Humidity;BMP_temperature;BMP_pressure;BME280_temperature;BME280_humidity;BME280_pressure;Samples;Min_cycle;Max_cycle;Signal;HPM_P1;HPM_P2
2021/10/02 00:41:48;;;;;;;0.55;0.40;;;16.70;68.80;;;;;;20720626;28;20041;-80
2021/10/02 00:51:49;;;;;;;0.75;0.40;;;16.70;68.80;;;;;;20753143;28;20152;-79
2021/10/02 01:01:55;;;;;;;1.35;0.60;;;16.60;68.70;;;;;;20717925;28;20693;-80
2021/10/02 01:12:00;;;;;;;1.42;0.70;;;16.60;68.70;;;;;;20702911;28;20037;-80
2021/10/02 01:22:19;;;;;;;1.83;0.30;;;16.60;68.70;;;;;;20717743;28;20707;-81
2021/10/02 01:32:24;;;;;;;0.55;0.50;;;16.60;68.90;;;;;;20750091;28;20497;-80
2021/10/02 01:52:44;;;;;;;1.38;0.80;;;16.60;68.90;;;;;;20724675;28;20068;-81
2021/10/02 02:02:46;;;;;;;0.52;0.40;;;16.60;69.60;;;;;;20796676;28;20037;-81
2021/10/02 02:12:48;;;;;;;1.98;0.60;;;16.70;69.00;;;;;;20796557;28;20391;-81
2021/10/02 02:22:48;;;;;;;0.55;0.35;;;16.60;68.90;;;;;;20811791;28;20499;-80
2021/10/02 02:32:53;;;;;;;0.88;0.47;;;16.60;68.90;;;;;;20795915;28;20033;-81
2021/10/02 02:42:54;;;;;;;1.33;0.50;;;16.60;69.00;;;;;;20818594;28;20072;-81
2021/10/02 02:53:01;;;;;;;0.68;0.30;;;16.70;69.00;;;;;;20827451;28;20029;-80
2021/10/02 03:03:03;;;;;;;0.70;0.50;;;16.60;69.00;;;;;;20826265;28;20064;-81
2021/10/02 03:13:10;;;;;;;0.30;0.30;;;16.60;69.00;;;;;;20825654;28;20033;-80
2021/10/02 03:23:10;;;;;;;0.73;0.60;;;16.60;69.10;;;;;;20825191;28;20533;-80
2021/10/02 03:33:11;;;;;;;0.50;0.45;;;16.60;69.10;;;;;;20825145;28;20041;-82
2021/10/02 03:43:12;;;;;;;1.75;0.70;;;16.60;69.80;;;;;;20823252;28;20045;-81
2021/10/02 03:53:13;;;;;;;1.02;0.50;;;16.60;69.30;;;;;;20822427;28;20021;-81
2021/10/02 04:03:13;;;;;;;0.80;0.45;;;16.60;69.30;;;;;;20805789;28;20404;-82
2021/10/02 04:13:14;;;;;;;0.95;0.52;;;16.60;69.30;;;;;;20787360;28;20647;-81
2021/10/02 04:23:14;;;;;;;1.73;0.57;;;16.60;69.40;;;;;;20722483;28;20041;-84
2021/10/02 04:33:15;;;;;;;3.33;0.40;;;16.60;69.40;;;;;;20706594;28;20040;-81
2021/10/02 04:43:16;;;;;;;1.45;0.47;;;16.60;69.40;;;;;;20753080;28;20125;-82
2021/10/02 04:53:17;;;;;;;0.70;0.60;;;16.60;70.10;;;;;;20751814;28;20140;-83
2021/10/02 05:03:17;;;;;;;0.60;0.45;;;16.60;69.50;;;;;;20743984;28;20049;-83
2021/10/02 05:13:18;;;;;;;1.83;0.50;;;16.60;69.60;;;;;;20833322;28;20033;-83
2021/10/02 05:23:19;;;;;;;0.75;0.50;;;16.60;69.60;;;;;;20815839;28;20299;-81
2021/10/02 05:33:20;;;;;;;1.50;0.47;;;16.60;69.70;;;;;;20815669;28;20069;-82
2021/10/02 05:43:21;;;;;;;0.88;0.40;;;16.60;69.70;;;;;;20813616;28;20488;-82
2021/10/02 05:53:22;;;;;;;1.02;0.63;;;16.60;69.80;;;;;;20812913;28;20084;-81
2021/10/02 06:03:23;;;;;;;0.73;0.35;;;16.60;69.80;;;;;;20812754;28;20400;-83
2021/10/02 06:13:23;;;;;;;0.73;0.57;;;16.60;69.80;;;;;;20813354;28;20040;-84
2021/10/02 06:23:26;;;;;;;0.57;0.52;;;16.60;69.90;;;;;;20806641;28;20136;-73
2021/10/02 06:33:27;;;;;;;0.70;0.50;;;16.60;69.90;;;;;;20807840;28;20104;-77
2021/10/02 06:43:28;;;;;;;1.08;0.50;;;16.60;69.90;;;;;;20806002;28;20099;-80
2021/10/02 06:53:28;;;;;;;1.40;0.98;;;16.60;70.00;;;;;;20805891;28;20112;-83
2021/10/02 07:03:29;;;;;;;1.38;0.70;;;16.60;70.00;;;;;;20808824;28;20037;-79
2021/10/02 07:13:29;;;;;;;0.60;0.50;;;16.60;70.10;;;;;;20807233;28;20064;-82
2021/10/02 07:23:32;;;;;;;1.92;0.73;;;16.60;70.20;;;;;;20808690;28;20120;-82
2021/10/02 07:33:33;;;;;;;0.57;0.38;;;16.60;70.30;;;;;;20819193;28;20073;-80
2021/10/02 07:43:33;;;;;;;0.73;0.40;;;16.60;70.30;;;;;;20818369;28;20129;-81
2021/10/02 07:53:34;;;;;;;1.73;0.73;;;16.60;70.40;;;;;;20669666;28;20031;-77
2021/10/02 08:03:35;;;;;;;1.73;0.75;;;16.60;70.50;;;;;;20684860;28;20492;-76
2021/10/02 08:13:35;;;;;;;10.38;1.10;;;16.60;70.60;;;;;;20684106;28;20058;-77
2021/10/02 08:23:37;;;;;;;1.42;0.50;;;16.60;70.50;;;;;;20667366;28;20042;-83
2021/10/02 08:33:37;;;;;;;1.95;0.63;;;16.60;70.60;;;;;;20667329;28;20125;-76
2021/10/02 08:43:38;;;;;;;0.98;0.60;;;16.60;70.60;;;;;;20708864;28;20121;-77
2021/10/02 08:53:39;;;;;;;2.03;0.60;;;16.60;70.70;;;;;;20647544;28;20120;-80
2021/10/02 09:03:40;;;;;;;2.40;0.50;;;16.60;70.80;;;;;;20688384;28;20545;-80
2021/10/02 09:13:41;;;;;;;1.15;0.75;;;16.60;70.80;;;;;;20663775;28;20205;-82
2021/10/02 09:23:46;;;;;;;1.60;0.45;;;16.60;70.80;;;;;;20647901;28;20038;-79
2021/10/02 09:33:47;;;;;;;3.30;0.60;;;16.70;70.90;;;;;;20646225;28;20067;-82
2021/10/02 09:43:52;;;;;;;1.13;0.80;;;16.70;70.90;;;;;;20647814;28;20420;-85
2021/10/02 09:53:53;;;;;;;1.40;0.80;;;16.70;70.90;;;;;;20646438;28;20380;-82
2021/10/02 10:03:54;;;;;;;0.93;0.50;;;16.70;70.90;;;;;;20660992;28;20129;-82
2021/10/02 10:13:58;;;;;;;1.42;0.80;;;16.70;70.90;;;;;;20643906;28;20026;-84
2021/10/02 10:23:58;;;;;;;3.10;0.60;;;16.70;70.90;;;;;;20644155;28;20042;-81
2021/10/02 10:34:03;;;;;;;1.48;0.95;;;16.70;70.90;;;;;;21138162;22;20072;-74
2021/10/02 10:44:06;;;;;;;4.80;1.42;;;16.70;70.90;;;;;;20736261;28;20112;-78
2021/10/02 10:54:14;;;;;;;1.42;0.60;;;16.80;71.00;;;;;;20707512;28;20030;-76
2021/10/02 11:04:33;;;;;;;1.45;1.00;;;16.70;71.00;;;;;;20716089;28;20045;-78
2021/10/02 11:14:54;;;;;;;1.23;0.90;;;16.80;71.00;;;;;;20737928;28;20653;-82
2021/10/02 11:25:02;;;;;;;2.25;0.70;;;16.80;70.90;;;;;;20753153;28;20758;-74
2021/10/02 11:35:19;;;;;;;0.60;0.40;;;16.80;70.80;;;;;;20753098;28;20418;-77
2021/10/02 11:45:36;;;;;;;0.80;0.47;;;16.80;70.90;;;;;;20710236;28;20041;-75
2021/10/02 11:55:43;;;;;;;0.38;0.30;;;16.80;70.80;;;;;;20733918;28;20050;-77
2021/10/02 12:05:46;;;;;;;1.35;0.40;;;16.80;70.80;;;;;;20758274;28;20103;-81
2021/10/02 12:15:48;;;;;;;2.40;1.48;;;16.80;70.80;;;;;;20715275;28;20030;-79
2021/10/02 12:25:48;;;;;;;1.13;0.85;;;16.80;70.80;;;;;;20714795;28;20391;-81
2021/10/02 12:35:49;;;;;;;1.03;0.30;;;16.80;70.80;;;;;;20718547;28;20041;-81
2021/10/02 12:45:50;;;;;;;4.18;0.98;;;16.80;70.80;;;;;;20703273;28;20994;-82
2021/10/02 12:55:51;;;;;;;1.75;0.30;;;16.90;70.80;;;;;;20753941;28;20042;-76
2021/10/02 13:05:59;;;;;;;1.55;0.35;;;16.90;70.80;;;;;;20713084;28;20038;-79
2021/10/02 13:15:59;;;;;;;0.93;0.70;;;16.90;70.90;;;;;;20749917;28;20494;-76
2021/10/02 13:26:11;;;;;;;1.17;0.50;;;16.90;71.00;;;;;;20711686;28;20042;-74
2021/10/02 13:36:24;;;;;;;5.97;0.40;;;16.90;70.90;;;;;;20710182;28;20472;-72
2021/10/02 13:46:27;;;;;;;2.40;0.88;;;16.90;70.90;;;;;;20693973;28;20140;-71
2021/10/02 13:56:35;;;;;;;1.08;0.50;;;16.90;71.00;;;;;;20725071;28;20069;-74
2021/10/02 14:06:35;;;;;;;2.22;0.50;;;16.90;71.00;;;;;;20709993;28;20144;-73
2021/10/02 14:16:36;;;;;;;3.70;0.73;;;16.90;71.00;;;;;;20702758;28;20129;-74
2021/10/02 14:26:38;;;;;;;5.07;0.80;;;16.90;71.00;;;;;;20713400;28;20045;-83
2021/10/02 14:36:39;;;;;;;1.88;0.60;;;16.90;71.00;;;;;;20720667;28;20038;-83
2021/10/02 14:46:40;;;;;;;1.00;0.40;;;16.90;71.10;;;;;;20764039;28;20045;-83
2021/10/02 14:56:43;;;;;;;0.95;0.50;;;16.90;71.10;;;;;;20746404;28;20399;-83
2021/10/02 15:06:51;;;;;;;4.97;0.65;;;16.90;71.10;;;;;;20734592;28;20375;-75
2021/10/02 15:16:51;;;;;;;2.75;0.50;;;16.90;71.10;;;;;;20733246;28;20034;-77
2021/10/02 15:26:53;;;;;;;3.67;1.27;;;16.90;71.20;;;;;;20716030;28;20404;-76
2021/10/02 15:36:58;;;;;;;4.85;1.60;;;17.00;71.30;;;;;;20734317;28;20367;-77
2021/10/02 15:47:04;;;;;;;1.95;0.40;;;17.00;71.30;;;;;;20717184;28;20488;-78
2021/10/02 15:57:06;;;;;;;;;;;16.90;71.30;;;;;;20739253;28;20033;-76
2021/10/02 16:07:07;;;;;;;3.13;0.50;;;17.00;71.40;;;;;;20734385;28;19921;-78
2021/10/02 16:17:08;;;;;;;1.60;1.00;;;16.90;71.40;;;;;;20746857;28;20046;-77
2021/10/02 16:27:08;;;;;;;0.60;0.30;;;16.90;71.40;;;;;;20734544;28;20180;-75
2021/10/02 16:37:10;;;;;;;0.35;0.20;;;16.90;71.40;;;;;;20729761;28;20045;-78
2021/10/02 16:47:11;;;;;;;2.92;0.38;;;16.90;71.50;;;;;;20744880;28;20038;-83
2021/10/02 16:57:13;;;;;;;4.37;0.50;;;16.90;71.50;;;;;;20729049;28;20137;-79
2021/10/02 17:07:14;;;;;;;1.75;0.40;;;16.90;71.50;;;;;;20748919;28;20307;-78
2021/10/02 17:17:15;;;;;;;0.65;0.40;;;16.90;71.50;;;;;;20727993;28;20029;-77
2021/10/02 17:27:15;;;;;;;0.77;0.38;;;16.80;71.60;;;;;;20727219;28;20037;-77
2021/10/02 17:37:17;;;;;;;0.40;0.30;;;16.80;71.50;;;;;;20743213;28;20419;-78
2021/10/02 17:47:19;;;;;;;2.20;0.33;;;16.80;71.60;;;;;;20728184;28;20053;-77
2021/10/02 17:57:21;;;;;;;0.93;0.57;;;16.90;71.60;;;;;;20772015;28;20412;-77
2021/10/02 18:07:22;;;;;;;2.00;0.40;;;16.80;71.60;;;;;;20706587;28;20128;-77
2021/10/02 18:17:22;;;;;;;0.43;0.30;;;16.90;71.70;;;;;;20722203;28;20328;-77
2021/10/02 18:27:33;;;;;;;0.60;0.40;;;16.90;71.70;;;;;;20706478;28;20043;-78
2021/10/02 18:37:39;;;;;;;0.47;0.35;;;16.80;71.60;;;;;;20724185;28;20045;-77
2021/10/02 18:47:41;;;;;;;0.50;0.40;;;16.80;71.60;;;;;;20722732;28;20061;-77
2021/10/02 18:57:43;;;;;;;0.45;0.35;;;16.80;71.70;;;;;;20717621;28;20121;-77
2021/10/02 19:07:45;;;;;;;0.43;0.40;;;16.80;71.60;;;;;;20737300;28;20542;-77
2021/10/02 19:17:46;;;;;;;0.20;0.20;;;16.80;71.60;;;;;;20741088;28;20042;-77
2021/10/02 19:27:47;;;;;;;0.45;0.30;;;16.80;71.70;;;;;;20725787;28;20485;-77
2021/10/02 19:37:47;;;;;;;1.60;0.82;;;16.80;71.60;;;;;;20735246;28;20472;-77
2021/10/02 19:47:50;;;;;;;0.73;0.45;;;16.80;71.70;;;;;;20734659;28;20121;-77
2021/10/02 19:57:51;;;;;;;0.52;0.40;;;16.80;71.70;;;;;;20732813;28;20057;-76
2021/10/02 20:07:51;;;;;;;0.97;0.40;;;16.80;71.70;;;;;;20716879;28;20487;-77
2021/10/02 20:17:52;;;;;;;3.40;0.70;;;16.80;71.70;;;;;;20731737;28;20336;-78
2021/10/02 20:27:52;;;;;;;0.85;0.43;;;16.80;71.70;;;;;;20745126;28;20065;-78
2021/10/02 20:37:53;;;;;;;0.98;0.43;;;16.80;71.60;;;;;;20746811;28;20042;-77
2021/10/02 20:47:54;;;;;;;0.65;0.30;;;16.80;71.70;;;;;;20730033;28;20037;-76
2021/10/02 20:57:55;;;;;;;0.50;0.40;;;16.80;71.60;;;;;;20745168;28;20041;-77
2021/10/02 21:07:59;;;;;;;0.70;0.28;;;16.80;71.60;;;;;;20745819;28;20395;-77
2021/10/02 21:17:59;;;;;;;0.40;0.30;;;16.80;71.70;;;;;;20727323;28;20107;-77
2021/10/02 21:28:00;;;;;;;0.57;0.40;;;16.80;71.70;;;;;;20726079;28;20033;-77
2021/10/02 21:38:02;;;;;;;0.50;0.22;;;16.80;71.70;;;;;;20710300;28;20045;-77
2021/10/02 21:48:08;;;;;;;0.52;0.40;;;16.80;71.70;;;;;;20748201;28;20033;-77
2021/10/02 21:58:10;;;;;;;0.70;0.40;;;16.80;71.70;;;;;;20790764;28;20049;-76
2021/10/02 22:08:10;;;;;;;0.80;0.50;;;16.80;71.70;;;;;;20805903;28;20064;-77
2021/10/02 22:18:11;;;;;;;0.60;0.45;;;16.80;71.70;;;;;;20821980;28;20144;-77
2021/10/02 22:28:13;;;;;;;0.35;0.22;;;16.80;71.70;;;;;;20822005;28;20049;-77
2021/10/02 22:38:14;;;;;;;1.05;0.60;;;16.80;71.70;;;;;;20805031;28;20142;-77
2021/10/02 22:48:15;;;;;;;0.30;0.30;;;16.80;71.70;;;;;;20787657;28;20038;-77
2021/10/02 22:58:16;;;;;;;0.90;0.50;;;16.80;71.70;;;;;;20808583;28;20033;-77
2021/10/02 23:08:16;;;;;;;0.95;0.50;;;16.80;71.70;;;;;;20803328;28;20105;-77
2021/10/02 23:18:20;;;;;;;1.25;0.50;;;16.80;71.70;;;;;;20818146;28;20045;-78
2021/10/02 23:28:23;;;;;;;0.88;0.55;;;16.80;71.70;;;;;;20818763;28;20049;-78
2021/10/02 23:38:26;;;;;;;0.73;0.52;;;16.80;71.70;;;;;;20834158;28;20454;-78
2021/10/02 23:48:28;;;;;;;1.08;0.50;;;16.80;71.60;;;;;;20800545;28;20183;-77
2021/10/02 23:58:33;;;;;;;1.10;0.40;;;16.90;71.70;;;;;;20815943;28;20046;-78
